createdAt,value
2022-11-30T00:02:26.874Z,101372.19
2022-11-30T00:04:59.639Z,101375.47
2022-11-30T00:07:33.089Z,101383.89
2022-11-30T00:10:07.441Z,101372.91
2022-11-30T00:12:41.831Z,101378.02
2022-11-30T00:15:17.822Z,101376.94
2022-11-30T00:17:51.346Z,101377.88
2022-11-30T00:20:24.152Z,101374.38
2022-11-30T00:22:59.126Z,101370.00
2022-11-30T00:25:31.741Z,101371.63
2022-11-30T00:28:04.499Z,101374.75
2022-11-30T00:30:37.245Z,101375.66
2022-11-30T00:33:09.851Z,101365.41
2022-11-30T00:35:42.939Z,101372.37
2022-11-30T00:38:15.644Z,101364.70
2022-11-30T00:40:48.369Z,101360.48
2022-11-30T00:43:21.082Z,101360.86
2022-11-30T00:45:53.925Z,101363.43
2022-11-30T00:48:26.611Z,101362.34
2022-11-30T00:50:59.389Z,101355.80
2022-11-30T00:53:32.191Z,101355.80
2022-11-30T00:56:05.957Z,101367.50
2022-11-30T00:58:38.978Z,101352.67
2022-11-30T01:01:12.144Z,101357.61
2022-11-30T01:03:44.857Z,101357.61
2022-11-30T01:06:17.631Z,101355.23
2022-11-30T01:08:50.664Z,101351.77
2022-11-30T01:11:29.190Z,101351.59
2022-11-30T01:14:02.648Z,101345.37
2022-11-30T01:16:36.092Z,101342.10
2022-11-30T01:19:08.915Z,101341.39
2022-11-30T01:21:41.778Z,101350.54
2022-11-30T01:24:14.634Z,101348.70
2022-11-30T01:26:47.320Z,101358.98
2022-11-30T01:29:20.358Z,101361.73
2022-11-30T01:31:54.244Z,101354.58
2022-11-30T01:34:26.880Z,101363.02
2022-11-30T01:36:59.501Z,101363.02
2022-11-30T01:39:32.191Z,101374.16
2022-11-30T01:42:05.222Z,101365.02
2022-11-30T01:44:59.428Z,101366.30
2022-11-30T01:47:48.702Z,101360.83
2022-11-30T01:50:29.113Z,101353.15
2022-11-30T01:53:02.135Z,101346.75
2022-11-30T01:55:43.570Z,101336.50
2022-11-30T01:58:20.907Z,101336.31
2022-11-30T02:00:53.577Z,101333.56
2022-11-30T02:03:42.798Z,101343.06
2022-11-30T02:06:15.822Z,101341.78
2022-11-30T02:08:48.593Z,101337.78
2022-11-30T02:11:21.432Z,101336.50
2022-11-30T02:14:30.924Z,101341.44
2022-11-30T02:17:35.980Z,101329.72
2022-11-30T02:20:25.519Z,101334.66
2022-11-30T02:23:19.799Z,101326.59
2022-11-30T02:26:10.390Z,101329.91
2022-11-30T02:29:07.540Z,101317.29
2022-11-30T02:31:47.907Z,101320.38
2022-11-30T02:34:22.778Z,101321.66
2022-11-30T02:36:56.653Z,101322.61
2022-11-30T02:39:29.590Z,101323.70
2022-11-30T02:42:02.205Z,101320.76
2022-11-30T02:44:35.343Z,101320.76
2022-11-30T02:47:35.519Z,101317.67
2022-11-30T02:50:26.638Z,101317.11
2022-11-30T02:52:59.788Z,101317.48
2022-11-30T02:55:32.533Z,101315.26
2022-11-30T02:58:05.857Z,101310.33
2022-11-30T03:00:38.846Z,101309.42
2022-11-30T03:03:11.637Z,101307.58
2022-11-30T03:05:44.221Z,101309.42
2022-11-30T03:08:16.991Z,101306.14
2022-11-30T03:10:49.695Z,101300.83
2022-11-30T03:13:22.390Z,101307.95
2022-11-30T03:15:55.174Z,101303.77
2022-11-30T03:18:27.850Z,101308.52
2022-11-30T03:21:00.475Z,101312.36
2022-11-30T03:23:33.672Z,101305.23
2022-11-30T03:26:08.302Z,101308.33
2022-11-30T03:28:41.044Z,101299.36
2022-11-30T03:31:15.032Z,101300.48
2022-11-30T03:33:47.784Z,101288.02
2022-11-30T03:36:20.666Z,101289.14
2022-11-30T03:38:53.591Z,101281.65
2022-11-30T03:41:26.247Z,101274.67
2022-11-30T03:43:58.950Z,101285.30
2022-11-30T03:46:31.843Z,101277.99
2022-11-30T03:49:04.584Z,101275.05
2022-11-30T03:51:37.704Z,101281.08
2022-11-30T03:54:10.570Z,101290.42
2022-11-30T03:56:43.250Z,101295.92
2022-11-30T03:59:15.999Z,101298.83
2022-11-30T04:01:49.650Z,101310.17
2022-11-30T04:04:22.469Z,101293.70
2022-11-30T04:06:55.176Z,101296.11
2022-11-30T04:09:28.108Z,101302.33
2022-11-30T04:12:02.459Z,101297.92
2022-11-30T04:14:35.172Z,101296.30
2022-11-30T04:17:07.799Z,101303.23
2022-11-30T04:19:40.785Z,101294.11
2022-11-30T04:22:13.416Z,101295.20
2022-11-30T04:24:46.338Z,101299.23
2022-11-30T04:27:19.281Z,101302.88
2022-11-30T04:29:52.448Z,101305.10
2022-11-30T04:32:25.445Z,101309.66
2022-11-30T04:34:58.152Z,101299.06
2022-11-30T04:37:31.445Z,101305.84
2022-11-30T04:40:04.689Z,101305.84
2022-11-30T04:42:37.528Z,101304.92
2022-11-30T04:45:11.647Z,101306.77
2022-11-30T04:47:45.283Z,101308.95
2022-11-30T04:50:18.044Z,101307.14
2022-11-30T04:52:51.279Z,101306.77
2022-11-30T04:55:24.658Z,101313.55
2022-11-30T04:57:57.569Z,101315.91
2022-11-30T05:00:31.098Z,101316.67
2022-11-30T05:03:04.343Z,101314.83
2022-11-30T05:05:37.141Z,101310.60
2022-11-30T05:08:11.069Z,101305.47
2022-11-30T05:10:46.636Z,101318.48
2022-11-30T05:13:18.311Z,101319.42
2022-11-30T05:15:51.165Z,101318.86
2022-11-30T05:18:24.023Z,101321.42
2022-11-30T05:20:56.701Z,101314.11
2022-11-30T05:23:29.700Z,101325.08
2022-11-30T05:26:04.928Z,101326.36
2022-11-30T05:28:38.512Z,101336.09
2022-11-30T05:31:11.242Z,101331.86
2022-11-30T05:33:44.083Z,101333.70
2022-11-30T05:36:16.720Z,101337.17
2022-11-30T05:38:49.997Z,101344.15
2022-11-30T05:41:22.782Z,101341.02
2022-11-30T05:43:56.594Z,101340.30
2022-11-30T05:46:29.943Z,101345.41
2022-11-30T05:49:02.577Z,101339.75
2022-11-30T05:51:35.439Z,101340.28
2022-11-30T05:54:08.140Z,101339.56
2022-11-30T05:56:40.838Z,101340.12
2022-11-30T05:59:13.675Z,101344.16
2022-11-30T06:01:47.084Z,101342.31
2022-11-30T06:04:20.307Z,101358.60
2022-11-30T06:06:54.778Z,101350.56
2022-11-30T06:09:27.791Z,101349.09
2022-11-30T06:12:00.548Z,101345.61
2022-11-30T06:14:33.536Z,101356.77
2022-11-30T06:17:06.254Z,101343.23
2022-11-30T06:19:39.127Z,101343.76
2022-11-30T06:22:13.027Z,101355.67
2022-11-30T06:24:45.998Z,101342.69
2022-11-30T06:27:20.000Z,101351.09
2022-11-30T06:29:53.022Z,101360.44
2022-11-30T06:32:26.182Z,101360.09
2022-11-30T06:34:59.068Z,101359.73
2022-11-30T06:37:33.471Z,101367.42
2022-11-30T06:40:08.394Z,101367.41
2022-11-30T06:42:42.395Z,101372.19
2022-11-30T06:45:15.219Z,101377.86
2022-11-30T06:47:47.957Z,101375.27
2022-11-30T06:50:20.615Z,101370.33
2022-11-30T06:52:53.411Z,101369.20
2022-11-30T06:55:26.592Z,101361.49
2022-11-30T06:58:10.342Z,101352.66
2022-11-30T07:00:43.450Z,101352.66
2022-11-30T07:03:16.196Z,101352.80
2022-11-30T07:05:49.291Z,101355.34
2022-11-30T07:08:22.358Z,101352.80
2022-11-30T07:10:54.965Z,101354.21
2022-11-30T07:13:30.408Z,101349.98
2022-11-30T07:16:07.481Z,101352.70
2022-11-30T07:18:40.843Z,101354.52
2022-11-30T07:21:13.558Z,101354.50
2022-11-30T07:24:04.258Z,101355.77
2022-11-30T07:26:37.302Z,101361.78
2022-11-30T07:29:10.150Z,101353.31
2022-11-30T07:31:43.730Z,101345.95
2022-11-30T07:34:16.412Z,101341.00
2022-11-30T07:36:49.604Z,101350.31
2022-11-30T07:39:23.783Z,101348.30
2022-11-30T07:41:56.484Z,101353.23
2022-11-30T07:44:30.981Z,101360.77
2022-11-30T07:47:03.608Z,101351.25
2022-11-30T07:49:36.572Z,101356.73
2022-11-30T07:52:09.798Z,101350.87
2022-11-30T07:54:42.673Z,101347.36
2022-11-30T07:57:15.469Z,101347.89
2022-11-30T07:59:48.806Z,101338.13
2022-11-30T08:02:21.752Z,101341.78
2022-11-30T08:04:56.728Z,101342.61
2022-11-30T08:07:29.483Z,101339.27
2022-11-30T08:10:02.125Z,101341.95
2022-11-30T08:12:35.037Z,101341.52
2022-11-30T08:15:19.948Z,101336.13
2022-11-30T08:17:43.977Z,101337.67
2022-11-30T08:20:16.978Z,101332.81
2022-11-30T08:22:52.158Z,101332.72
2022-11-30T08:25:24.092Z,101330.39
2022-11-30T08:27:56.599Z,101333.81
2022-11-30T08:30:32.708Z,101332.64
2022-11-30T08:33:05.097Z,101329.67
2022-11-30T08:35:38.015Z,101328.77
2022-11-30T08:38:10.734Z,101326.02
2022-11-30T08:40:43.605Z,101312.20
2022-11-30T08:43:16.828Z,101314.27
2022-11-30T08:45:54.265Z,101315.00
2022-11-30T08:48:24.257Z,101320.70
2022-11-30T08:50:58.690Z,101299.88
2022-11-30T08:53:31.488Z,101305.75
2022-11-30T08:56:08.950Z,101310.08
2022-11-30T08:58:42.281Z,101314.45
2022-11-30T09:01:19.206Z,101322.67
2022-11-30T09:03:58.777Z,101313.81
2022-11-30T09:06:32.320Z,101308.37
2022-11-30T09:09:05.143Z,101310.33
2022-11-30T09:11:38.441Z,101313.19
2022-11-30T09:14:11.923Z,101319.94
2022-11-30T09:16:45.257Z,101306.99
2022-11-30T09:19:18.044Z,101305.48
2022-11-30T09:21:52.191Z,101301.94
2022-11-30T09:24:25.338Z,101296.73
2022-11-30T09:26:58.794Z,101292.77
2022-11-30T09:29:31.746Z,101301.16
2022-11-30T09:32:04.659Z,101291.34
2022-11-30T09:34:37.488Z,101297.50
2022-11-30T09:37:10.114Z,101303.69
2022-11-30T09:39:43.450Z,101299.50
2022-11-30T09:42:35.978Z,101301.53
2022-11-30T09:45:21.985Z,101302.50
2022-11-30T09:48:18.341Z,101290.09
2022-11-30T09:50:51.725Z,101279.00
2022-11-30T09:53:41.656Z,101280.03
2022-11-30T09:56:21.717Z,101284.77
2022-11-30T09:59:01.936Z,101276.12
2022-11-30T10:01:38.506Z,101283.59
2022-11-30T10:04:19.717Z,101273.49
2022-11-30T10:07:23.042Z,101276.90
2022-11-30T10:10:32.252Z,101279.64
2022-11-30T10:12:59.629Z,101260.26
2022-11-30T10:15:52.148Z,101264.29
2022-11-30T10:18:41.880Z,101268.63
2022-11-30T10:21:31.421Z,101261.16
2022-11-30T10:24:25.626Z,101259.36
2022-11-30T10:27:00.232Z,101260.86
2022-11-30T10:29:37.058Z,101263.83
2022-11-30T10:32:25.529Z,101261.48
2022-11-30T10:35:02.900Z,101256.00
2022-11-30T10:37:40.469Z,101266.92
2022-11-30T10:40:20.987Z,101260.16
2022-11-30T10:43:22.057Z,101260.39
2022-11-30T10:45:55.094Z,101263.87
2022-11-30T10:48:43.700Z,101251.12
2022-11-30T10:51:16.875Z,101262.97
2022-11-30T10:53:49.722Z,101259.64
2022-11-30T10:56:22.542Z,101259.02
2022-11-30T10:59:05.445Z,101261.22
2022-11-30T11:01:41.844Z,101269.90
2022-11-30T11:04:19.466Z,101256.59
2022-11-30T11:07:11.183Z,101268.45
2022-11-30T11:09:51.557Z,101253.39
2022-11-30T11:12:31.206Z,101262.73
2022-11-30T11:15:26.784Z,101263.02
2022-11-30T11:18:26.312Z,101265.52
2022-11-30T11:21:15.367Z,101263.75
2022-11-30T11:23:51.405Z,101270.87
2022-11-30T11:26:27.619Z,101275.95
2022-11-30T11:29:01.418Z,101275.08
2022-11-30T11:31:46.717Z,101272.73
2022-11-30T11:34:30.844Z,101284.93
2022-11-30T11:37:11.393Z,101287.00
2022-11-30T11:39:44.404Z,101283.64
2022-11-30T11:42:22.134Z,101282.90
2022-11-30T11:44:59.038Z,101284.70
2022-11-30T11:47:42.675Z,101291.16
2022-11-30T11:51:04.853Z,101292.45
2022-11-30T11:53:24.685Z,101283.57
2022-11-30T11:56:17.540Z,101294.05
2022-11-30T11:59:02.812Z,101298.79
2022-11-30T12:01:51.977Z,101290.81
2022-11-30T12:04:47.732Z,101299.11
2022-11-30T12:07:37.194Z,101298.20
2022-11-30T12:10:50.013Z,101292.42
2022-11-30T12:12:54.785Z,101286.12
2022-11-30T12:15:39.792Z,101279.83
2022-11-30T12:18:28.313Z,101283.34
2022-11-30T12:21:14.921Z,101279.83
2022-11-30T12:24:01.176Z,101278.77
2022-11-30T12:26:46.990Z,101282.26
2022-11-30T12:29:24.577Z,101279.16
2022-11-30T12:32:13.864Z,101302.08
2022-11-30T12:35:00.128Z,101292.50
2022-11-30T12:37:47.820Z,101293.86
2022-11-30T12:40:37.699Z,101299.83
2022-11-30T12:43:31.003Z,101297.52
2022-11-30T12:46:26.718Z,101283.97
2022-11-30T12:49:25.118Z,101277.43
2022-11-30T12:52:25.365Z,101281.59
2022-11-30T12:55:35.824Z,101285.73
2022-11-30T12:58:34.267Z,101288.22
2022-11-30T13:01:21.729Z,101284.98
2022-11-30T13:03:59.060Z,101298.14
2022-11-30T13:06:39.761Z,101304.88
2022-11-30T13:09:32.541Z,101314.09
2022-11-30T13:12:21.658Z,101308.27
2022-11-30T13:15:00.943Z,101320.28
2022-11-30T13:17:34.573Z,101317.38
2022-11-30T13:20:14.766Z,101326.45
2022-11-30T13:23:04.531Z,101320.98
2022-11-30T13:26:07.991Z,101322.32
2022-11-30T13:28:54.016Z,101319.19
2022-11-30T13:31:43.736Z,101322.34
2022-11-30T13:34:33.242Z,101320.54
2022-11-30T13:37:27.365Z,101332.31
2022-11-30T13:40:01.181Z,101328.80
2022-11-30T13:42:51.264Z,101330.85
2022-11-30T13:45:33.279Z,101331.37
2022-11-30T13:48:28.368Z,101333.05
2022-11-30T13:51:01.192Z,101340.23
2022-11-30T13:53:37.458Z,101349.06
2022-11-30T13:56:35.398Z,101346.67
2022-11-30T13:59:33.274Z,101329.56
2022-11-30T14:02:42.218Z,101340.23
2022-11-30T14:05:23.555Z,101347.80
2022-11-30T14:08:07.071Z,101341.95
2022-11-30T14:10:46.068Z,101333.84
2022-11-30T14:13:28.711Z,101350.98
2022-11-30T14:16:03.357Z,101335.13
2022-11-30T14:18:44.381Z,101329.07
2022-11-30T14:21:35.390Z,101343.08
2022-11-30T14:24:15.698Z,101347.47
2022-11-30T14:26:52.930Z,101365.16
2022-11-30T14:29:36.322Z,101361.30
2022-11-30T14:32:22.615Z,101362.20
2022-11-30T14:35:00.396Z,101356.33
2022-11-30T14:37:37.516Z,101351.03
2022-11-30T14:40:19.034Z,101370.20
2022-11-30T14:42:56.407Z,101371.67
2022-11-30T14:45:32.609Z,101365.06
2022-11-30T14:48:14.107Z,101373.02
2022-11-30T14:50:58.816Z,101369.54
2022-11-30T14:53:53.072Z,101366.24
2022-11-30T14:56:38.591Z,101364.78
2022-11-30T14:59:50.740Z,101374.55
2022-11-30T15:02:38.406Z,101364.67
2022-11-30T15:05:17.726Z,101374.81
2022-11-30T15:07:51.144Z,101369.27
2022-11-30T15:10:32.124Z,101367.81
2022-11-30T15:13:06.315Z,101363.56
2022-11-30T15:15:41.896Z,101368.55
2022-11-30T15:18:19.733Z,101356.95
2022-11-30T15:21:02.387Z,101359.23
2022-11-30T15:23:36.372Z,101353.14
2022-11-30T15:26:19.568Z,101353.36
2022-11-30T15:29:12.876Z,101362.59
2022-11-30T15:31:49.247Z,101356.89
2022-11-30T15:34:43.000Z,101359.69
2022-11-30T15:37:16.874Z,101356.55
2022-11-30T15:39:58.171Z,101358.97
2022-11-30T15:42:38.432Z,101350.52
2022-11-30T15:45:24.429Z,101343.91
2022-11-30T15:47:59.306Z,101360.65
2022-11-30T15:50:37.439Z,101346.31
2022-11-30T15:53:32.209Z,101356.66
2022-11-30T15:56:09.145Z,101357.62
2022-11-30T15:58:49.253Z,101356.16
2022-11-30T16:01:25.268Z,101351.22
2022-11-30T16:04:08.564Z,101348.48
2022-11-30T16:06:49.973Z,101351.44
2022-11-30T16:09:30.664Z,101363.21
2022-11-30T16:12:04.711Z,101366.91
2022-11-30T16:14:37.704Z,101375.02
2022-11-30T16:17:12.563Z,101376.69
2022-11-30T16:19:45.754Z,101374.30
2022-11-30T16:22:18.822Z,101374.67
2022-11-30T16:24:51.553Z,101373.81
2022-11-30T16:27:24.479Z,101379.87
2022-11-30T16:29:57.386Z,101374.34
2022-11-30T16:32:31.061Z,101377.08
2022-11-30T16:35:04.342Z,101374.89
2022-11-30T16:37:37.046Z,101383.14
2022-11-30T16:40:10.519Z,101377.98
2022-11-30T16:42:43.740Z,101373.77
2022-11-30T16:45:21.361Z,101374.12
2022-11-30T16:47:54.496Z,101376.70
2022-11-30T16:50:28.145Z,101369.91
2022-11-30T16:53:01.763Z,101377.08
2022-11-30T16:55:37.994Z,101375.45
2022-11-30T16:58:11.128Z,101374.55
2022-11-30T17:00:44.004Z,101380.98
2022-11-30T17:03:29.752Z,101366.83
2022-11-30T17:06:02.633Z,101373.44
2022-11-30T17:08:37.552Z,101374.94
2022-11-30T17:11:15.028Z,101368.50
2022-11-30T17:13:48.625Z,101371.80
2022-11-30T17:16:21.768Z,101361.34
2022-11-30T17:18:54.516Z,101372.75
2022-11-30T17:21:34.108Z,101373.48
2022-11-30T17:24:08.150Z,101371.30
2022-11-30T17:26:41.506Z,101372.80
2022-11-30T17:29:14.400Z,101372.24
2022-11-30T17:31:47.031Z,101375.20
2022-11-30T17:34:19.702Z,101378.90
2022-11-30T17:36:54.017Z,101369.93
2022-11-30T17:39:25.780Z,101380.61
2022-11-30T17:41:58.242Z,101387.05
2022-11-30T17:44:30.948Z,101379.84
2022-11-30T17:47:03.976Z,101383.53
2022-11-30T17:49:36.608Z,101384.30
2022-11-30T17:52:10.156Z,101386.11
2022-11-30T17:54:43.130Z,101390.73
2022-11-30T17:57:16.101Z,101388.20
2022-11-30T17:59:49.767Z,101388.38
2022-11-30T18:02:22.415Z,101375.34
2022-11-30T18:04:56.056Z,101381.25
2022-11-30T18:07:28.881Z,101372.59
2022-11-30T18:10:02.359Z,101373.70
2022-11-30T18:12:35.212Z,101383.48
2022-11-30T18:15:09.018Z,101395.06
2022-11-30T18:17:42.119Z,101390.09
2022-11-30T18:20:16.626Z,101385.70
2022-11-30T18:22:49.529Z,101394.55
2022-11-30T18:25:22.606Z,101399.17
2022-11-30T18:27:55.496Z,101397.33
2022-11-30T18:30:28.574Z,101403.59
2022-11-30T18:33:02.042Z,101402.30
2022-11-30T18:35:35.997Z,101405.64
2022-11-30T18:38:08.795Z,101398.27
2022-11-30T18:40:41.562Z,101400.50
2022-11-30T18:43:14.240Z,101404.18
2022-11-30T18:45:47.050Z,101404.95
2022-11-30T18:48:19.848Z,101406.58
2022-11-30T18:50:53.303Z,101421.29
2022-11-30T18:53:26.205Z,101426.64
2022-11-30T18:56:08.705Z,101427.93
2022-11-30T18:58:45.746Z,101425.88
2022-11-30T19:01:20.800Z,101429.73
2022-11-30T19:03:55.921Z,101433.42
2022-11-30T19:06:30.088Z,101432.34
2022-11-30T19:09:09.477Z,101427.76
2022-11-30T19:11:44.389Z,101425.18
2022-11-30T19:14:18.740Z,101425.36
2022-11-30T19:16:52.082Z,101422.61
2022-11-30T19:19:25.110Z,101422.61
2022-11-30T19:21:58.509Z,101430.50
2022-11-30T19:24:31.230Z,101432.17
2022-11-30T19:27:04.472Z,101438.98
2022-11-30T19:29:37.269Z,101442.08
2022-11-30T19:32:10.460Z,101438.98
2022-11-30T19:34:43.222Z,101445.03
2022-11-30T19:37:16.234Z,101446.33
2022-11-30T19:39:48.821Z,101449.63
2022-11-30T19:42:21.517Z,101444.69
2022-11-30T19:44:54.971Z,101455.70
2022-11-30T19:47:27.702Z,101460.70
2022-11-30T19:50:01.178Z,101462.34
2022-11-30T19:52:34.236Z,101465.68
2022-11-30T19:55:07.955Z,101471.55
2022-11-30T19:57:41.328Z,101475.41
2022-11-30T20:00:16.134Z,101485.52
2022-11-30T20:02:50.456Z,101479.12
2022-11-30T20:05:23.169Z,101485.38
2022-11-30T20:07:56.268Z,101487.95
2022-11-30T20:10:32.041Z,101483.14
2022-11-30T20:13:03.329Z,101484.61
2022-11-30T20:15:37.726Z,101487.74
2022-11-30T20:18:10.738Z,101487.95
2022-11-30T20:20:43.543Z,101489.58
2022-11-30T20:23:16.366Z,101493.81
2022-11-30T20:25:49.079Z,101497.13
2022-11-30T20:28:22.105Z,101497.50
2022-11-30T20:30:54.820Z,101497.88
2022-11-30T20:33:27.950Z,101510.36
2022-11-30T20:36:04.833Z,101509.08
2022-11-30T20:38:38.756Z,101503.03
2022-11-30T20:41:13.109Z,101502.29
2022-11-30T20:43:46.255Z,101507.81
2022-11-30T20:46:36.947Z,101508.54
2022-11-30T20:49:19.194Z,101511.31
2022-11-30T20:51:53.139Z,101511.66
2022-11-30T20:54:26.485Z,101522.53
2022-11-30T20:57:00.647Z,101518.70
2022-11-30T20:59:33.841Z,101512.09
2022-11-30T21:02:06.595Z,101521.99
2022-11-30T21:04:39.357Z,101519.62
2022-11-30T21:07:11.953Z,101519.97
2022-11-30T21:09:44.655Z,101515.77
2022-11-30T21:12:17.387Z,101516.49
2022-11-30T21:14:50.504Z,101520.55
2022-11-30T21:17:23.319Z,101515.05
2022-11-30T21:19:55.930Z,101517.97
2022-11-30T21:22:30.041Z,101513.93
2022-11-30T21:25:02.988Z,101506.42
2022-11-30T21:27:35.802Z,101516.34
2022-11-30T21:30:10.018Z,101515.80
2022-11-30T21:32:43.057Z,101515.28
2022-11-30T21:35:15.796Z,101514.53
2022-11-30T21:37:48.348Z,101515.46
2022-11-30T21:40:21.590Z,101510.14
2022-11-30T21:42:54.136Z,101505.38
2022-11-30T21:45:26.739Z,101504.82
2022-11-30T21:47:59.736Z,101503.55
2022-11-30T21:50:33.293Z,101494.72
2022-11-30T21:53:05.914Z,101499.72
2022-11-30T21:55:39.577Z,101495.84
2022-11-30T21:58:12.256Z,101492.19
2022-11-30T22:00:45.147Z,101501.00
2022-11-30T22:03:19.650Z,101497.16
2022-11-30T22:06:05.682Z,101498.43
2022-11-30T22:08:39.095Z,101494.39
2022-11-30T22:11:19.308Z,101496.06
2022-11-30T22:13:53.940Z,101487.61
2022-11-30T22:16:35.276Z,101488.56
2022-11-30T22:19:03.027Z,101486.72
2022-11-30T22:21:36.698Z,101481.02
2022-11-30T22:24:13.041Z,101479.20
2022-11-30T22:26:49.454Z,101484.34
2022-11-30T22:29:24.660Z,101487.84
2022-11-30T22:31:57.275Z,101479.77
2022-11-30T22:34:31.129Z,101478.46
2022-11-30T22:37:03.715Z,101488.93
2022-11-30T22:39:36.256Z,101492.41
2022-11-30T22:42:09.135Z,101493.34
2022-11-30T22:44:41.699Z,101494.81
2022-11-30T22:47:15.251Z,101497.38
2022-11-30T22:49:48.289Z,101503.05
2022-11-30T22:52:36.483Z,101502.86
2022-11-30T22:54:56.001Z,101511.67
2022-11-30T22:57:28.843Z,101500.48
2022-11-30T23:00:01.870Z,101512.95
2022-11-30T23:02:34.723Z,101501.78
2022-11-30T23:05:07.771Z,101505.25
2022-11-30T23:07:40.843Z,101503.97
2022-11-30T23:10:15.149Z,101509.67
2022-11-30T23:13:02.973Z,101518.09
2022-11-30T23:15:22.461Z,101523.61
2022-11-30T23:17:55.474Z,101519.19
2022-11-30T23:20:28.092Z,101521.58
2022-11-30T23:23:00.741Z,101516.11
2022-11-30T23:25:33.654Z,101515.55
2022-11-30T23:28:06.694Z,101521.97
2022-11-30T23:30:39.864Z,101515.36
2022-11-30T23:33:12.613Z,101516.08
2022-11-30T23:35:45.971Z,101521.22
2022-11-30T23:38:19.337Z,101512.80
2022-11-30T23:40:51.992Z,101510.97
2022-11-30T23:43:24.760Z,101520.68
2022-11-30T23:45:57.466Z,101515.92
2022-11-30T23:48:30.594Z,101512.41
2022-11-30T23:51:04.454Z,101514.98
2022-11-30T23:53:37.186Z,101517.18
2022-11-30T23:56:14.688Z,101506.92
2022-11-30T23:58:47.695Z,101509.48
